sensor_id;sensor_type;location;lat;lon;timestamp;pressure;altitude;pressure_sealevel;temperature
14666;BMP280;7420;53.574;10.040;2022-10-16T00:01:20;100948.78;;;14.23
14666;BMP280;7420;53.574;10.040;2022-10-16T00:03:47;100951.13;;;14.19
14666;BMP280;7420;53.574;10.040;2022-10-16T00:06:13;100955.88;;;14.17
14666;BMP280;7420;53.574;10.040;2022-10-16T00:08:39;100953.41;;;14.16
14666;BMP280;7420;53.574;10.040;2022-10-16T00:11:08;100959.00;;;14.14
14666;BMP280;7420;53.574;10.040;2022-10-16T00:13:35;100964.69;;;14.18
14666;BMP280;7420;53.574;10.040;2022-10-16T00:16:00;100973.31;;;14.20
14666;BMP280;7420;53.574;10.040;2022-10-16T00:18:27;100966.25;;;14.25
14666;BMP280;7420;53.574;10.040;2022-10-16T00:20:53;100957.66;;;14.23
14666;BMP280;7420;53.574;10.040;2022-10-16T00:23:19;100959.72;;;14.21
14666;BMP280;7420;53.574;10.040;2022-10-16T00:25:45;100960.47;;;14.28
14666;BMP280;7420;53.574;10.040;2022-10-16T00:28:18;100968.94;;;14.25
14666;BMP280;7420;53.574;10.040;2022-10-16T00:30:44;100959.63;;;14.28
14666;BMP280;7420;53.574;10.040;2022-10-16T00:33:09;100962.09;;;14.29
14666;BMP280;7420;53.574;10.040;2022-10-16T00:35:34;100962.09;;;14.29
14666;BMP280;7420;53.574;10.040;2022-10-16T00:37:59;100967.44;;;14.29
14666;BMP280;7420;53.574;10.040;2022-10-16T00:40:25;100964.16;;;14.27
14666;BMP280;7420;53.574;10.040;2022-10-16T00:42:50;100985.56;;;14.27
14666;BMP280;7420;53.574;10.040;2022-10-16T00:45:15;100974.41;;;14.30
14666;BMP280;7420;53.574;10.040;2022-10-16T00:47:45;100979.44;;;14.38
14666;BMP280;7420;53.574;10.040;2022-10-16T00:50:28;100976.41;;;14.35
14666;BMP280;7420;53.574;10.040;2022-10-16T00:52:55;100990.47;;;14.30
14666;BMP280;7420;53.574;10.040;2022-10-16T00:55:21;100980.31;;;14.32
14666;BMP280;7420;53.574;10.040;2022-10-16T00:57:48;100980.13;;;14.34
14666;BMP280;7420;53.574;10.040;2022-10-16T01:00:18;100977.66;;;14.32
14666;BMP280;7420;53.574;10.040;2022-10-16T01:02:44;100977.44;;;14.34
14666;BMP280;7420;53.574;10.040;2022-10-16T01:05:10;100977.44;;;14.34
14666;BMP280;7420;53.574;10.040;2022-10-16T01:07:56;100980.31;;;14.32
14666;BMP280;7420;53.574;10.040;2022-10-16T01:10:34;100980.56;;;14.31
14666;BMP280;7420;53.574;10.040;2022-10-16T01:13:05;100988.00;;;14.29
14666;BMP280;7420;53.574;10.040;2022-10-16T01:15:42;100996.59;;;14.31
14666;BMP280;7420;53.574;10.040;2022-10-16T01:18:19;101000.13;;;14.31
14666;BMP280;7420;53.574;10.040;2022-10-16T01:20:54;100999.72;;;14.28
14666;BMP280;7420;53.574;10.040;2022-10-16T01:23:40;100994.47;;;14.21
14666;BMP280;7420;53.574;10.040;2022-10-16T01:26:27;101001.31;;;14.17
14666;BMP280;7420;53.574;10.040;2022-10-16T01:29:19;101001.81;;;14.08
14666;BMP280;7420;53.574;10.040;2022-10-16T01:31:51;101006.63;;;13.99
14666;BMP280;7420;53.574;10.040;2022-10-16T01:34:25;101000.69;;;13.97
14666;BMP280;7420;53.574;10.040;2022-10-16T01:36:59;101005.22;;;13.97
14666;BMP280;7420;53.574;10.040;2022-10-16T01:39:31;101003.22;;;13.92
14666;BMP280;7420;53.574;10.040;2022-10-16T01:42:28;100994.53;;;13.97
14666;BMP280;7420;53.574;10.040;2022-10-16T01:44:58;101002.31;;;13.98
14666;BMP280;7420;53.574;10.040;2022-10-16T01:47:25;101006.47;;;13.94
14666;BMP280;7420;53.574;10.040;2022-10-16T01:49:52;101004.41;;;13.96
14666;BMP280;7420;53.574;10.040;2022-10-16T01:52:23;101000.34;;;13.94
14666;BMP280;7420;53.574;10.040;2022-10-16T01:54:52;100996.72;;;13.88
14666;BMP280;7420;53.574;10.040;2022-10-16T01:57:20;101002.41;;;13.92
14666;BMP280;7420;53.574;10.040;2022-10-16T01:59:49;101000.41;;;13.87
14666;BMP280;7420;53.574;10.040;2022-10-16T02:02:17;101004.94;;;13.87
14666;BMP280;7420;53.574;10.040;2022-10-16T02:07:10;101008.88;;;13.84
14666;BMP280;7420;53.574;10.040;2022-10-16T02:09:36;101004.56;;;13.83
14666;BMP280;7420;53.574;10.040;2022-10-16T02:12:09;101000.25;;;13.82
14666;BMP280;7420;53.574;10.040;2022-10-16T02:14:38;101011.41;;;13.79
14666;BMP280;7420;53.574;10.040;2022-10-16T02:17:16;101011.84;;;13.77
14666;BMP280;7420;53.574;10.040;2022-10-16T02:19:42;101007.22;;;13.66
14666;BMP280;7420;53.574;10.040;2022-10-16T02:22:10;101010.34;;;13.63
14666;BMP280;7420;53.574;10.040;2022-10-16T02:25:19;101015.50;;;13.58
14666;BMP280;7420;53.574;10.040;2022-10-16T02:27:57;101011.44;;;13.55
14666;BMP280;7420;53.574;10.040;2022-10-16T02:30:47;101017.22;;;13.52
14666;BMP280;7420;53.574;10.040;2022-10-16T02:33:16;101017.28;;;13.46
14666;BMP280;7420;53.574;10.040;2022-10-16T02:35:44;101018.16;;;13.40
14666;BMP280;7420;53.574;10.040;2022-10-16T02:38:10;101020.06;;;13.33
14666;BMP280;7420;53.574;10.040;2022-10-16T02:40:37;101024.44;;;13.27
14666;BMP280;7420;53.574;10.040;2022-10-16T02:43:04;101010.69;;;13.24
14666;BMP280;7420;53.574;10.040;2022-10-16T02:47:55;101004.72;;;13.28
14666;BMP280;7420;53.574;10.040;2022-10-16T02:50:21;101010.25;;;13.27
14666;BMP280;7420;53.574;10.040;2022-10-16T02:52:46;101014.63;;;13.21
14666;BMP280;7420;53.574;10.040;2022-10-16T02:55:11;101009.50;;;13.20
14666;BMP280;7420;53.574;10.040;2022-10-16T02:57:37;101014.03;;;13.19
14666;BMP280;7420;53.574;10.040;2022-10-16T03:00:04;101014.25;;;13.18
14666;BMP280;7420;53.574;10.040;2022-10-16T03:02:29;101021.66;;;13.16
14666;BMP280;7420;53.574;10.040;2022-10-16T03:04:55;101012.66;;;13.10
14666;BMP280;7420;53.574;10.040;2022-10-16T03:07:20;101021.78;;;13.03
14666;BMP280;7420;53.574;10.040;2022-10-16T03:09:45;101022.63;;;12.97
14666;BMP280;7420;53.574;10.040;2022-10-16T03:12:11;101013.41;;;12.93
14666;BMP280;7420;53.574;10.040;2022-10-16T03:14:37;101013.66;;;12.85
14666;BMP280;7420;53.574;10.040;2022-10-16T03:17:02;101007.50;;;12.84
14666;BMP280;7420;53.574;10.040;2022-10-16T03:19:27;101011.41;;;12.82
14666;BMP280;7420;53.574;10.040;2022-10-16T03:21:52;101000.13;;;12.80
14666;BMP280;7420;53.574;10.040;2022-10-16T03:24:18;101008.19;;;12.73
14666;BMP280;7420;53.574;10.040;2022-10-16T03:26:43;101014.56;;;12.72
14666;BMP280;7420;53.574;10.040;2022-10-16T03:29:08;101012.13;;;12.71
14666;BMP280;7420;53.574;10.040;2022-10-16T03:31:34;101012.56;;;12.68
14666;BMP280;7420;53.574;10.040;2022-10-16T03:33:59;101018.31;;;12.65
14666;BMP280;7420;53.574;10.040;2022-10-16T03:36:25;101013.78;;;12.65
14666;BMP280;7420;53.574;10.040;2022-10-16T03:38:50;101018.50;;;12.63
14666;BMP280;7420;53.574;10.040;2022-10-16T03:41:15;101022.63;;;12.59
14666;BMP280;7420;53.574;10.040;2022-10-16T03:43:40;101020.78;;;12.60
14666;BMP280;7420;53.574;10.040;2022-10-16T03:46:06;101020.78;;;12.60
14666;BMP280;7420;53.574;10.040;2022-10-16T03:48:31;101031.88;;;12.57
14666;BMP280;7420;53.574;10.040;2022-10-16T03:50:57;101031.06;;;12.57
14666;BMP280;7420;53.574;10.040;2022-10-16T03:53:22;101032.91;;;12.56
14666;BMP280;7420;53.574;10.040;2022-10-16T03:55:48;101025.72;;;12.57
14666;BMP280;7420;53.574;10.040;2022-10-16T03:58:13;101024.31;;;12.54
14666;BMP280;7420;53.574;10.040;2022-10-16T04:00:43;101029.25;;;12.51
14666;BMP280;7420;53.574;10.040;2022-10-16T04:03:08;101029.03;;;12.52
14666;BMP280;7420;53.574;10.040;2022-10-16T04:05:34;101033.34;;;12.53
14666;BMP280;7420;53.574;10.040;2022-10-16T04:07:59;101029.88;;;12.53
14666;BMP280;7420;53.574;10.040;2022-10-16T04:10:24;101050.38;;;12.52
14666;BMP280;7420;53.574;10.040;2022-10-16T04:12:50;101052.38;;;12.57
14666;BMP280;7420;53.574;10.040;2022-10-16T04:15:15;101056.50;;;12.59
14666;BMP280;7420;53.574;10.040;2022-10-16T04:17:40;101054.25;;;12.56
14666;BMP280;7420;53.574;10.040;2022-10-16T04:20:06;101062.25;;;12.56
14666;BMP280;7420;53.574;10.040;2022-10-16T04:22:31;101056.72;;;12.51
14666;BMP280;7420;53.574;10.040;2022-10-16T04:24:56;101068.84;;;12.47
14666;BMP280;7420;53.574;10.040;2022-10-16T04:27:22;101065.16;;;12.48
14666;BMP280;7420;53.574;10.040;2022-10-16T04:29:47;101066.59;;;12.44
14666;BMP280;7420;53.574;10.040;2022-10-16T04:32:12;101064.16;;;12.43
14666;BMP280;7420;53.574;10.040;2022-10-16T04:34:39;101068.84;;;12.47
14666;BMP280;7420;53.574;10.040;2022-10-16T04:37:04;101068.84;;;12.47
14666;BMP280;7420;53.574;10.040;2022-10-16T04:39:30;101067.63;;;12.43
14666;BMP280;7420;53.574;10.040;2022-10-16T04:41:55;101077.91;;;12.40
14666;BMP280;7420;53.574;10.040;2022-10-16T04:44:21;101088.34;;;12.41
14666;BMP280;7420;53.574;10.040;2022-10-16T04:46:46;101089.81;;;12.37
14666;BMP280;7420;53.574;10.040;2022-10-16T04:49:11;101081.38;;;12.40
14666;BMP280;7420;53.574;10.040;2022-10-16T04:51:36;101085.69;;;12.41
14666;BMP280;7420;53.574;10.040;2022-10-16T04:54:02;101089.59;;;12.39
14666;BMP280;7420;53.574;10.040;2022-10-16T04:56:27;101094.28;;;12.43
14666;BMP280;7420;53.574;10.040;2022-10-16T04:58:52;101078.72;;;12.40
14666;BMP280;7420;53.574;10.040;2022-10-16T05:01:18;101085.25;;;12.44
14666;BMP280;7420;53.574;10.040;2022-10-16T05:03:43;101086.06;;;12.51
14666;BMP280;7420;53.574;10.040;2022-10-16T05:06:09;101091.81;;;12.48
14666;BMP280;7420;53.574;10.040;2022-10-16T05:08:34;101098.38;;;12.52
14666;BMP280;7420;53.574;10.040;2022-10-16T05:10:59;101093.03;;;12.52
14666;BMP280;7420;53.574;10.040;2022-10-16T05:13:25;101096.53;;;12.46
14666;BMP280;7420;53.574;10.040;2022-10-16T05:15:51;101100.03;;;12.47
14666;BMP280;7420;53.574;10.040;2022-10-16T05:18:16;101107.84;;;12.42
14666;BMP280;7420;53.574;10.040;2022-10-16T05:20:42;101104.56;;;12.40
14666;BMP280;7420;53.574;10.040;2022-10-16T05:23:07;101115.44;;;12.38
14666;BMP280;7420;53.574;10.040;2022-10-16T05:25:35;101113.78;;;12.37
14666;BMP280;7420;53.574;10.040;2022-10-16T05:28:01;101116.91;;;12.34
14666;BMP280;7420;53.574;10.040;2022-10-16T05:30:26;101121.00;;;12.37
14666;BMP280;7420;53.574;10.040;2022-10-16T05:32:51;101116.91;;;12.34
14666;BMP280;7420;53.574;10.040;2022-10-16T05:35:18;101123.44;;;12.38
14666;BMP280;7420;53.574;10.040;2022-10-16T05:37:43;101122.63;;;12.38
14666;BMP280;7420;53.574;10.040;2022-10-16T05:40:09;101115.81;;;12.48
14666;BMP280;7420;53.574;10.040;2022-10-16T05:42:35;101130.38;;;12.46
14666;BMP280;7420;53.574;10.040;2022-10-16T05:45:00;101130.16;;;12.47
14666;BMP280;7420;53.574;10.040;2022-10-16T05:47:26;101119.91;;;12.51
14666;BMP280;7420;53.574;10.040;2022-10-16T05:49:51;101117.66;;;12.48
14666;BMP280;7420;53.574;10.040;2022-10-16T05:52:16;101113.94;;;12.55
14666;BMP280;7420;53.574;10.040;2022-10-16T05:54:42;101110.66;;;12.53
14666;BMP280;7420;53.574;10.040;2022-10-16T05:57:08;101113.56;;;12.52
14666;BMP280;7420;53.574;10.040;2022-10-16T05:59:33;101124.78;;;12.60
14666;BMP280;7420;53.574;10.040;2022-10-16T06:01:59;101133.59;;;12.67
14666;BMP280;7420;53.574;10.040;2022-10-16T06:04:24;101129.28;;;12.66
14666;BMP280;7420;53.574;10.040;2022-10-16T06:06:49;101132.94;;;12.71
14666;BMP280;7420;53.574;10.040;2022-10-16T06:09:14;101126.81;;;12.71
14666;BMP280;7420;53.574;10.040;2022-10-16T06:11:40;101131.31;;;12.70
14666;BMP280;7420;53.574;10.040;2022-10-16T06:14:05;101129.06;;;12.67
14666;BMP280;7420;53.574;10.040;2022-10-16T06:16:35;101139.94;;;12.66
14666;BMP280;7420;53.574;10.040;2022-10-16T06:19:02;101138.13;;;12.60
14666;BMP280;7420;53.574;10.040;2022-10-16T06:21:31;101137.09;;;12.61
14666;BMP280;7420;53.574;10.040;2022-10-16T06:23:56;101143.88;;;12.57
14666;BMP280;7420;53.574;10.040;2022-10-16T06:26:24;101141.41;;;12.56
14666;BMP280;7420;53.574;10.040;2022-10-16T06:28:50;101148.22;;;12.52
14666;BMP280;7420;53.574;10.040;2022-10-16T06:31:16;101153.31;;;12.53
14666;BMP280;7420;53.574;10.040;2022-10-16T06:33:42;101153.75;;;12.50
14666;BMP280;7420;53.574;10.040;2022-10-16T06:36:13;101151.31;;;12.49
14666;BMP280;7420;53.574;10.040;2022-10-16T06:38:39;101152.53;;;12.46
14666;BMP280;7420;53.574;10.040;2022-10-16T06:41:06;101161.97;;;12.49
14666;BMP280;7420;53.574;10.040;2022-10-16T06:43:33;101161.13;;;12.48
14666;BMP280;7420;53.574;10.040;2022-10-16T06:46:00;101159.50;;;12.47
14666;BMP280;7420;53.574;10.040;2022-10-16T06:48:27;101156.22;;;12.52
14666;BMP280;7420;53.574;10.040;2022-10-16T06:50:56;101166.25;;;12.56
14666;BMP280;7420;53.574;10.040;2022-10-16T06:53:23;101172.38;;;12.63
14666;BMP280;7420;53.574;10.040;2022-10-16T06:55:51;101176.03;;;12.68
14666;BMP280;7420;53.574;10.040;2022-10-16T06:58:16;101181.19;;;12.70
14666;BMP280;7420;53.574;10.040;2022-10-16T07:00:42;101191.38;;;12.79
14666;BMP280;7420;53.574;10.040;2022-10-16T07:03:07;101183.56;;;12.84
14666;BMP280;7420;53.574;10.040;2022-10-16T07:05:37;101191.75;;;12.96
14666;BMP280;7420;53.574;10.040;2022-10-16T07:08:03;101198.25;;;13.06
14666;BMP280;7420;53.574;10.040;2022-10-16T07:10:30;101207.28;;;13.12
14666;BMP280;7420;53.574;10.040;2022-10-16T07:12:56;101208.03;;;13.25
14666;BMP280;7420;53.574;10.040;2022-10-16T07:15:21;101207.34;;;13.36
14666;BMP280;7420;53.574;10.040;2022-10-16T07:17:46;101206.06;;;13.45
14666;BMP280;7420;53.574;10.040;2022-10-16T07:20:12;101202.91;;;13.55
14666;BMP280;7420;53.574;10.040;2022-10-16T07:22:37;101207.81;;;13.58
14666;BMP280;7420;53.574;10.040;2022-10-16T07:25:03;101208.66;;;13.58
14666;BMP280;7420;53.574;10.040;2022-10-16T07:27:28;101209.03;;;13.62
14666;BMP280;7420;53.574;10.040;2022-10-16T07:29:53;101217.63;;;13.64
14666;BMP280;7420;53.574;10.040;2022-10-16T07:32:18;101215.38;;;13.61
14666;BMP280;7420;53.574;10.040;2022-10-16T07:34:44;101228.94;;;13.66
14666;BMP280;7420;53.574;10.040;2022-10-16T07:37:10;101223.31;;;13.74
14666;BMP280;7420;53.574;10.040;2022-10-16T07:39:36;101233.53;;;13.83
14666;BMP280;7420;53.574;10.040;2022-10-16T07:42:01;101236.75;;;13.91
14666;BMP280;7420;53.574;10.040;2022-10-16T07:44:26;101248.03;;;13.93
14666;BMP280;7420;53.574;10.040;2022-10-16T07:46:52;101242.81;;;14.05
14666;BMP280;7420;53.574;10.040;2022-10-16T07:49:17;101240.06;;;14.11
14666;BMP280;7420;53.574;10.040;2022-10-16T07:51:42;101247.59;;;14.27
14666;BMP280;7420;53.574;10.040;2022-10-16T07:54:09;101248.63;;;14.44
14666;BMP280;7420;53.574;10.040;2022-10-16T07:56:34;101251.63;;;14.54
14666;BMP280;7420;53.574;10.040;2022-10-16T07:58:59;101257.94;;;14.60
14666;BMP280;7420;53.574;10.040;2022-10-16T08:01:25;101254.03;;;14.62
14666;BMP280;7420;53.574;10.040;2022-10-16T08:03:51;101249.84;;;14.48
14666;BMP280;7420;53.574;10.040;2022-10-16T08:06:18;101250.28;;;14.45
14666;BMP280;7420;53.574;10.040;2022-10-16T08:08:43;101250.66;;;14.49
14666;BMP280;7420;53.574;10.040;2022-10-16T08:11:09;101261.28;;;14.55
14666;BMP280;7420;53.574;10.040;2022-10-16T08:13:34;101273.63;;;14.56
14666;BMP280;7420;53.574;10.040;2022-10-16T08:16:00;101261.91;;;14.57
14666;BMP280;7420;53.574;10.040;2022-10-16T08:18:26;101258.78;;;14.60
14666;BMP280;7420;53.574;10.040;2022-10-16T08:20:59;101269.91;;;14.57
14666;BMP280;7420;53.574;10.040;2022-10-16T08:23:26;101264.94;;;14.61
14666;BMP280;7420;53.574;10.040;2022-10-16T08:25:53;101272.59;;;14.75
14666;BMP280;7420;53.574;10.040;2022-10-16T08:28:19;101271.94;;;14.97
14666;BMP280;7420;53.574;10.040;2022-10-16T08:30:44;101277.16;;;15.10
14666;BMP280;7420;53.574;10.040;2022-10-16T08:33:10;101276.59;;;15.20
14666;BMP280;7420;53.574;10.040;2022-10-16T08:35:35;101275.66;;;15.32
14666;BMP280;7420;53.574;10.040;2022-10-16T08:38:03;101263.31;;;15.61
14666;BMP280;7420;53.574;10.040;2022-10-16T08:40:30;101272.09;;;15.50
14666;BMP280;7420;53.574;10.040;2022-10-16T08:50:40;101277.94;;;15.47
14666;BMP280;7420;53.574;10.040;2022-10-16T08:53:06;101287.94;;;15.40
14666;BMP280;7420;53.574;10.040;2022-10-16T08:55:45;101276.75;;;15.43
14666;BMP280;7420;53.574;10.040;2022-10-16T08:58:13;101293.19;;;15.76
14666;BMP280;7420;53.574;10.040;2022-10-16T09:00:40;101297.78;;;15.87
14666;BMP280;7420;53.574;10.040;2022-10-16T09:03:55;101296.06;;;15.63
14666;BMP280;7420;53.574;10.040;2022-10-16T09:19:51;101300.25;;;16.00
14666;BMP280;7420;53.574;10.040;2022-10-16T09:22:21;101303.59;;;15.84
14666;BMP280;7420;53.574;10.040;2022-10-16T09:24:50;101315.84;;;15.91
14666;BMP280;7420;53.574;10.040;2022-10-16T09:27:15;101322.09;;;16.26
14666;BMP280;7420;53.574;10.040;2022-10-16T09:29:41;101318.53;;;16.43
14666;BMP280;7420;53.574;10.040;2022-10-16T09:32:12;101324.63;;;16.39
14666;BMP280;7420;53.574;10.040;2022-10-16T09:34:43;101320.47;;;16.25
14666;BMP280;7420;53.574;10.040;2022-10-16T09:37:13;101318.88;;;16.35
14666;BMP280;7420;53.574;10.040;2022-10-16T09:39:49;101324.31;;;16.29
14666;BMP280;7420;53.574;10.040;2022-10-16T09:42:30;101315.00;;;16.31
14666;BMP280;7420;53.574;10.040;2022-10-16T09:44:56;101320.63;;;16.41
14666;BMP280;7420;53.574;10.040;2022-10-16T09:47:29;101329.59;;;16.35
14666;BMP280;7420;53.574;10.040;2022-10-16T09:50:00;101315.41;;;16.58
14666;BMP280;7420;53.574;10.040;2022-10-16T09:52:28;101323.44;;;16.46
14666;BMP280;7420;53.574;10.040;2022-10-16T09:54:54;101321.22;;;16.43
14666;BMP280;7420;53.574;10.040;2022-10-16T09:57:21;101326.25;;;16.51
14666;BMP280;7420;53.574;10.040;2022-10-16T09:59:57;101353.78;;;16.58
14666;BMP280;7420;53.574;10.040;2022-10-16T10:02:31;101342.00;;;16.59
14666;BMP280;7420;53.574;10.040;2022-10-16T10:04:58;101356.81;;;16.62
14666;BMP280;7420;53.574;10.040;2022-10-16T10:07:26;101350.41;;;16.74
14666;BMP280;7420;53.574;10.040;2022-10-16T10:09:53;101373.38;;;16.70
14666;BMP280;7420;53.574;10.040;2022-10-16T10:12:24;101365.72;;;16.62
14666;BMP280;7420;53.574;10.040;2022-10-16T10:14:55;101360.47;;;16.79
14666;BMP280;7420;53.574;10.040;2022-10-16T10:17:30;101366.03;;;16.66
14666;BMP280;7420;53.574;10.040;2022-10-16T10:20:00;101371.41;;;16.43
14666;BMP280;7420;53.574;10.040;2022-10-16T10:27:42;101379.44;;;16.43
14666;BMP280;7420;53.574;10.040;2022-10-16T10:30:24;101367.81;;;16.60
14666;BMP280;7420;53.574;10.040;2022-10-16T10:33:16;101362.56;;;16.88
14666;BMP280;7420;53.574;10.040;2022-10-16T10:35:56;101378.53;;;17.06
14666;BMP280;7420;53.574;10.040;2022-10-16T10:38:43;101371.72;;;17.27
14666;BMP280;7420;53.574;10.040;2022-10-16T10:41:24;101378.41;;;17.35
14666;BMP280;7420;53.574;10.040;2022-10-16T10:43:58;101373.78;;;17.59
14666;BMP280;7420;53.574;10.040;2022-10-16T10:46:34;101371.63;;;17.72
14666;BMP280;7420;53.574;10.040;2022-10-16T10:51:44;101362.81;;;17.49
14666;BMP280;7420;53.574;10.040;2022-10-16T10:54:20;101367.50;;;17.53
14666;BMP280;7420;53.574;10.040;2022-10-16T10:57:22;101367.78;;;17.80
14666;BMP280;7420;53.574;10.040;2022-10-16T11:00:08;101374.28;;;18.12
14666;BMP280;7420;53.574;10.040;2022-10-16T11:05:42;101361.41;;;18.14
14666;BMP280;7420;53.574;10.040;2022-10-16T11:08:22;101384.06;;;18.46
14666;BMP280;7420;53.574;10.040;2022-10-16T11:11:00;101378.78;;;18.23
14666;BMP280;7420;53.574;10.040;2022-10-16T11:13:46;101379.19;;;18.15
14666;BMP280;7420;53.574;10.040;2022-10-16T11:16:21;101376.38;;;18.38
14666;BMP280;7420;53.574;10.040;2022-10-16T11:18:55;101383.66;;;18.37
14666;BMP280;7420;53.574;10.040;2022-10-16T11:21:23;101364.41;;;18.78
14666;BMP280;7420;53.574;10.040;2022-10-16T11:24:09;101383.81;;;18.80
14666;BMP280;7420;53.574;10.040;2022-10-16T11:26:41;101384.94;;;19.17
14666;BMP280;7420;53.574;10.040;2022-10-16T11:29:15;101406.66;;;18.45
14666;BMP280;7420;53.574;10.040;2022-10-16T11:31:46;101397.06;;;18.21
14666;BMP280;7420;53.574;10.040;2022-10-16T11:36:53;101407.63;;;18.71
14666;BMP280;7420;53.574;10.040;2022-10-16T11:39:26;101406.16;;;18.48
14666;BMP280;7420;53.574;10.040;2022-10-16T11:41:55;101418.84;;;18.36
14666;BMP280;7420;53.574;10.040;2022-10-16T11:44:36;101414.63;;;18.40
14666;BMP280;7420;53.574;10.040;2022-10-16T11:49:31;101419.72;;;18.52
14666;BMP280;7420;53.574;10.040;2022-10-16T11:54:52;101425.28;;;18.07
14666;BMP280;7420;53.574;10.040;2022-10-16T11:57:34;101434.09;;;18.02
14666;BMP280;7420;53.574;10.040;2022-10-16T12:03:05;101440.94;;;17.70
14666;BMP280;7420;53.574;10.040;2022-10-16T12:05:55;101429.31;;;17.93
14666;BMP280;7420;53.574;10.040;2022-10-16T12:08:23;101444.97;;;17.96
14666;BMP280;7420;53.574;10.040;2022-10-16T12:10:49;101442.19;;;18.30
14666;BMP280;7420;53.574;10.040;2022-10-16T12:13:36;101441.84;;;18.27
14666;BMP280;7420;53.574;10.040;2022-10-16T12:18:41;101451.91;;;20.10
14666;BMP280;7420;53.574;10.040;2022-10-16T12:21:07;101446.94;;;19.05
14666;BMP280;7420;53.574;10.040;2022-10-16T12:23:37;101449.31;;;18.25
14666;BMP280;7420;53.574;10.040;2022-10-16T12:26:03;101462.06;;;18.29
14666;BMP280;7420;53.574;10.040;2022-10-16T12:28:31;101466.91;;;18.16
14666;BMP280;7420;53.574;10.040;2022-10-16T12:31:07;101477.25;;;17.96
14666;BMP280;7420;53.574;10.040;2022-10-16T12:33:36;101479.59;;;18.59
14666;BMP280;7420;53.574;10.040;2022-10-16T12:36:27;101477.03;;;20.11
14666;BMP280;7420;53.574;10.040;2022-10-16T12:38:53;101462.44;;;20.33
14666;BMP280;7420;53.574;10.040;2022-10-16T12:41:28;101477.03;;;20.64
14666;BMP280;7420;53.574;10.040;2022-10-16T12:43:54;101481.66;;;20.15
14666;BMP280;7420;53.574;10.040;2022-10-16T12:46:39;101478.16;;;20.94
14666;BMP280;7420;53.574;10.040;2022-10-16T12:51:41;101491.03;;;20.56
14666;BMP280;7420;53.574;10.040;2022-10-16T12:54:40;101496.56;;;20.44
14666;BMP280;7420;53.574;10.040;2022-10-16T12:59:51;101498.72;;;19.07
14666;BMP280;7420;53.574;10.040;2022-10-16T13:05:13;101505.44;;;19.97
14666;BMP280;7420;53.574;10.040;2022-10-16T13:08:16;101516.19;;;19.05
14666;BMP280;7420;53.574;10.040;2022-10-16T13:11:04;101499.31;;;18.49
14666;BMP280;7420;53.574;10.040;2022-10-16T13:13:59;101532.03;;;21.05
14666;BMP280;7420;53.574;10.040;2022-10-16T13:19:42;101522.81;;;27.79
14666;BMP280;7420;53.574;10.040;2022-10-16T13:25:17;101522.25;;;31.79
14666;BMP280;7420;53.574;10.040;2022-10-16T13:27:52;101514.16;;;29.40
14666;BMP280;7420;53.574;10.040;2022-10-16T13:30:22;101514.03;;;29.45
14666;BMP280;7420;53.574;10.040;2022-10-16T13:32:50;101532.53;;;31.53
14666;BMP280;7420;53.574;10.040;2022-10-16T13:35:22;101546.84;;;30.79
14666;BMP280;7420;53.574;10.040;2022-10-16T13:37:48;101539.91;;;26.10
14666;BMP280;7420;53.574;10.040;2022-10-16T13:40:23;101521.25;;;33.91
14666;BMP280;7420;53.574;10.040;2022-10-16T13:42:50;101533.84;;;34.40
14666;BMP280;7420;53.574;10.040;2022-10-16T13:45:22;101531.19;;;30.54
14666;BMP280;7420;53.574;10.040;2022-10-16T13:47:48;101540.31;;;32.26
14666;BMP280;7420;53.574;10.040;2022-10-16T13:50:16;101541.06;;;31.69
14666;BMP280;7420;53.574;10.040;2022-10-16T13:52:42;101542.34;;;31.71
14666;BMP280;7420;53.574;10.040;2022-10-16T13:55:15;101540.66;;;35.52
14666;BMP280;7420;53.574;10.040;2022-10-16T13:57:41;101542.34;;;34.35
14666;BMP280;7420;53.574;10.040;2022-10-16T14:00:22;101539.66;;;32.29
14666;BMP280;7420;53.574;10.040;2022-10-16T14:02:58;101563.28;;;31.04
14666;BMP280;7420;53.574;10.040;2022-10-16T14:05:25;101558.09;;;31.45
14666;BMP280;7420;53.574;10.040;2022-10-16T14:07:51;101561.13;;;31.44
14666;BMP280;7420;53.574;10.040;2022-10-16T14:10:31;101559.16;;;32.65
14666;BMP280;7420;53.574;10.040;2022-10-16T14:12:59;101570.06;;;30.98
14666;BMP280;7420;53.574;10.040;2022-10-16T14:15:25;101562.69;;;22.60
14666;BMP280;7420;53.574;10.040;2022-10-16T14:17:51;101573.59;;;28.20
14666;BMP280;7420;53.574;10.040;2022-10-16T14:20:18;101582.59;;;29.93
14666;BMP280;7420;53.574;10.040;2022-10-16T14:22:44;101571.91;;;32.20
14666;BMP280;7420;53.574;10.040;2022-10-16T14:27:56;101579.53;;;29.64
14666;BMP280;7420;53.574;10.040;2022-10-16T14:30:22;101570.66;;;29.37
14666;BMP280;7420;53.574;10.040;2022-10-16T14:32:56;101597.41;;;26.56
14666;BMP280;7420;53.574;10.040;2022-10-16T14:35:29;101602.00;;;28.73
14666;BMP280;7420;53.574;10.040;2022-10-16T14:37:56;101610.97;;;21.39
14666;BMP280;7420;53.574;10.040;2022-10-16T14:40:25;101606.47;;;26.04
14666;BMP280;7420;53.574;10.040;2022-10-16T14:42:51;101595.44;;;28.20
14666;BMP280;7420;53.574;10.040;2022-10-16T14:45:27;101598.72;;;26.58
14666;BMP280;7420;53.574;10.040;2022-10-16T14:47:58;101602.69;;;24.62
14666;BMP280;7420;53.574;10.040;2022-10-16T14:50:25;101609.19;;;23.63
14666;BMP280;7420;53.574;10.040;2022-10-16T14:52:50;101605.38;;;22.33
14666;BMP280;7420;53.574;10.040;2022-10-16T14:55:16;101612.66;;;21.76
14666;BMP280;7420;53.574;10.040;2022-10-16T14:57:43;101615.34;;;21.13
14666;BMP280;7420;53.574;10.040;2022-10-16T15:00:15;101620.94;;;21.33
14666;BMP280;7420;53.574;10.040;2022-10-16T15:02:41;101616.88;;;22.50
14666;BMP280;7420;53.574;10.040;2022-10-16T15:05:23;101616.41;;;24.17
14666;BMP280;7420;53.574;10.040;2022-10-16T15:07:50;101629.66;;;24.97
14666;BMP280;7420;53.574;10.040;2022-10-16T15:10:17;101629.16;;;22.82
14666;BMP280;7420;53.574;10.040;2022-10-16T15:12:43;101630.13;;;22.00
14666;BMP280;7420;53.574;10.040;2022-10-16T15:17:45;101630.38;;;23.81
14666;BMP280;7420;53.574;10.040;2022-10-16T15:20:11;101632.03;;;25.47